sensor_id;sensor_type;location;lat;lon;timestamp;P1;durP1;ratioP1;P2;durP2;ratioP2
23242;SDS011;11790;49.578;11.214;2022-07-03T00:02:23;5.70;;;3.10;;
23242;SDS011;11790;49.578;11.214;2022-07-03T00:07:23;6.07;;;3.00;;
23242;SDS011;11790;49.578;11.214;2022-07-03T00:12:23;4.05;;;2.90;;
23242;SDS011;11790;49.578;11.214;2022-07-03T00:17:23;4.35;;;3.05;;
23242;SDS011;11790;49.578;11.214;2022-07-03T00:22:24;3.75;;;2.90;;
23242;SDS011;11790;49.578;11.214;2022-07-03T00:27:25;3.17;;;2.72;;
23242;SDS011;11790;49.578;11.214;2022-07-03T00:32:25;6.05;;;3.20;;
23242;SDS011;11790;49.578;11.214;2022-07-03T00:37:26;3.70;;;3.10;;
23242;SDS011;11790;49.578;11.214;2022-07-03T00:42:27;5.40;;;3.70;;
23242;SDS011;11790;49.578;11.214;2022-07-03T00:47:27;10.13;;;4.20;;
23242;SDS011;11790;49.578;11.214;2022-07-03T00:52:28;6.25;;;5.00;;
23242;SDS011;11790;49.578;11.214;2022-07-03T00:57:30;6.68;;;4.68;;
23242;SDS011;11790;49.578;11.214;2022-07-03T01:02:34;6.10;;;4.28;;
23242;SDS011;11790;49.578;11.214;2022-07-03T01:18:09;7.32;;;4.53;;
23242;SDS011;11790;49.578;11.214;2022-07-03T01:23:39;6.78;;;4.65;;
23242;SDS011;11790;49.578;11.214;2022-07-03T01:28:33;8.25;;;4.95;;
23242;SDS011;11790;49.578;11.214;2022-07-03T01:33:35;9.40;;;4.32;;
23242;SDS011;11790;49.578;11.214;2022-07-03T01:38:37;7.70;;;4.25;;
23242;SDS011;11790;49.578;11.214;2022-07-03T01:48:46;4.80;;;3.67;;
23242;SDS011;11790;49.578;11.214;2022-07-03T01:53:47;5.15;;;4.20;;
23242;SDS011;11790;49.578;11.214;2022-07-03T01:58:48;5.20;;;3.85;;
23242;SDS011;11790;49.578;11.214;2022-07-03T02:03:58;10.18;;;4.18;;
23242;SDS011;11790;49.578;11.214;2022-07-03T02:09:03;4.00;;;3.28;;
23242;SDS011;11790;49.578;11.214;2022-07-03T02:19:04;4.32;;;3.30;;
23242;SDS011;11790;49.578;11.214;2022-07-03T02:29:17;6.45;;;3.60;;
23242;SDS011;11790;49.578;11.214;2022-07-03T02:34:17;7.53;;;3.95;;
23242;SDS011;11790;49.578;11.214;2022-07-03T02:39:57;6.78;;;3.45;;
23242;SDS011;11790;49.578;11.214;2022-07-03T02:44:50;4.90;;;3.70;;
23242;SDS011;11790;49.578;11.214;2022-07-03T02:50:04;4.75;;;3.92;;
23242;SDS011;11790;49.578;11.214;2022-07-03T02:55:20;7.80;;;4.07;;
23242;SDS011;11790;49.578;11.214;2022-07-03T03:00:24;7.53;;;4.30;;
23242;SDS011;11790;49.578;11.214;2022-07-03T03:10:25;5.90;;;4.43;;
23242;SDS011;11790;49.578;11.214;2022-07-03T03:15:25;8.70;;;4.57;;
23242;SDS011;11790;49.578;11.214;2022-07-03T03:20:32;7.85;;;5.18;;
23242;SDS011;11790;49.578;11.214;2022-07-03T03:25:33;5.85;;;4.32;;
23242;SDS011;11790;49.578;11.214;2022-07-03T03:30:35;6.27;;;4.00;;
23242;SDS011;11790;49.578;11.214;2022-07-03T03:35:35;5.10;;;3.95;;
23242;SDS011;11790;49.578;11.214;2022-07-03T03:40:36;7.20;;;3.70;;
23242;SDS011;11790;49.578;11.214;2022-07-03T03:45:36;5.03;;;3.80;;
23242;SDS011;11790;49.578;11.214;2022-07-03T03:50:36;5.00;;;3.40;;
23242;SDS011;11790;49.578;11.214;2022-07-03T03:55:36;5.00;;;3.53;;
23242;SDS011;11790;49.578;11.214;2022-07-03T04:00:37;5.07;;;4.03;;
23242;SDS011;11790;49.578;11.214;2022-07-03T04:05:37;5.45;;;3.28;;
23242;SDS011;11790;49.578;11.214;2022-07-03T04:10:37;3.47;;;3.15;;
23242;SDS011;11790;49.578;11.214;2022-07-03T04:15:37;7.30;;;3.78;;
23242;SDS011;11790;49.578;11.214;2022-07-03T04:20:38;5.35;;;3.85;;
23242;SDS011;11790;49.578;11.214;2022-07-03T04:25:38;5.65;;;4.00;;
23242;SDS011;11790;49.578;11.214;2022-07-03T04:30:38;4.93;;;3.88;;
23242;SDS011;11790;49.578;11.214;2022-07-03T04:35:39;6.82;;;4.15;;
23242;SDS011;11790;49.578;11.214;2022-07-03T04:40:39;6.30;;;4.63;;
23242;SDS011;11790;49.578;11.214;2022-07-03T04:45:39;6.40;;;4.43;;
23242;SDS011;11790;49.578;11.214;2022-07-03T04:50:39;6.00;;;3.83;;
23242;SDS011;11790;49.578;11.214;2022-07-03T04:55:40;4.82;;;3.75;;
23242;SDS011;11790;49.578;11.214;2022-07-03T05:00:40;5.45;;;4.10;;
23242;SDS011;11790;49.578;11.214;2022-07-03T05:05:43;5.43;;;4.20;;
23242;SDS011;11790;49.578;11.214;2022-07-03T05:10:43;7.90;;;4.10;;
23242;SDS011;11790;49.578;11.214;2022-07-03T05:15:43;4.28;;;3.67;;
23242;SDS011;11790;49.578;11.214;2022-07-03T05:20:44;4.57;;;3.70;;
23242;SDS011;11790;49.578;11.214;2022-07-03T05:25:44;5.72;;;3.45;;
23242;SDS011;11790;49.578;11.214;2022-07-03T05:30:44;5.23;;;4.00;;
23242;SDS011;11790;49.578;11.214;2022-07-03T05:35:44;4.40;;;3.80;;
23242;SDS011;11790;49.578;11.214;2022-07-03T05:40:45;5.05;;;3.70;;
23242;SDS011;11790;49.578;11.214;2022-07-03T05:45:45;3.53;;;3.22;;
23242;SDS011;11790;49.578;11.214;2022-07-03T05:50:45;3.75;;;3.08;;
23242;SDS011;11790;49.578;11.214;2022-07-03T05:55:45;9.05;;;2.65;;
23242;SDS011;11790;49.578;11.214;2022-07-03T06:00:46;2.60;;;2.33;;
23242;SDS011;11790;49.578;11.214;2022-07-03T06:05:46;4.15;;;2.20;;
23242;SDS011;11790;49.578;11.214;2022-07-03T06:10:46;6.35;;;2.00;;
23242;SDS011;11790;49.578;11.214;2022-07-03T06:15:46;1.90;;;1.70;;
23242;SDS011;11790;49.578;11.214;2022-07-03T06:20:47;2.08;;;1.80;;
23242;SDS011;11790;49.578;11.214;2022-07-03T06:25:47;3.10;;;1.67;;
23242;SDS011;11790;49.578;11.214;2022-07-03T06:30:47;2.58;;;1.60;;
23242;SDS011;11790;49.578;11.214;2022-07-03T06:35:48;1.55;;;1.45;;
23242;SDS011;11790;49.578;11.214;2022-07-03T06:40:48;1.88;;;1.50;;
23242;SDS011;11790;49.578;11.214;2022-07-03T06:45:48;1.60;;;1.50;;
23242;SDS011;11790;49.578;11.214;2022-07-03T06:50:49;2.10;;;1.20;;
23242;SDS011;11790;49.578;11.214;2022-07-03T06:55:49;1.42;;;1.20;;
23242;SDS011;11790;49.578;11.214;2022-07-03T07:00:49;1.20;;;1.00;;
23242;SDS011;11790;49.578;11.214;2022-07-03T07:05:50;1.75;;;1.20;;
23242;SDS011;11790;49.578;11.214;2022-07-03T07:10:50;1.70;;;1.15;;
23242;SDS011;11790;49.578;11.214;2022-07-03T07:15:50;2.25;;;1.20;;
23242;SDS011;11790;49.578;11.214;2022-07-03T07:20:50;1.30;;;1.15;;
23242;SDS011;11790;49.578;11.214;2022-07-03T07:25:51;2.08;;;1.10;;
23242;SDS011;11790;49.578;11.214;2022-07-03T07:30:51;1.40;;;1.10;;
23242;SDS011;11790;49.578;11.214;2022-07-03T07:35:55;2.10;;;1.15;;
23242;SDS011;11790;49.578;11.214;2022-07-03T07:40:55;1.83;;;1.23;;
23242;SDS011;11790;49.578;11.214;2022-07-03T07:45:55;2.72;;;1.02;;
23242;SDS011;11790;49.578;11.214;2022-07-03T07:50:55;1.50;;;1.20;;
23242;SDS011;11790;49.578;11.214;2022-07-03T07:55:56;1.30;;;1.00;;
23242;SDS011;11790;49.578;11.214;2022-07-03T08:00:56;3.53;;;1.10;;
23242;SDS011;11790;49.578;11.214;2022-07-03T08:06:15;1.27;;;1.10;;
23242;SDS011;11790;49.578;11.214;2022-07-03T08:11:15;1.40;;;1.00;;
23242;SDS011;11790;49.578;11.214;2022-07-03T08:16:15;1.30;;;1.07;;
23242;SDS011;11790;49.578;11.214;2022-07-03T08:21:17;1.20;;;1.10;;
23242;SDS011;11790;49.578;11.214;2022-07-03T08:26:17;2.05;;;1.10;;
23242;SDS011;11790;49.578;11.214;2022-07-03T08:31:17;1.40;;;0.93;;
23242;SDS011;11790;49.578;11.214;2022-07-03T08:36:18;1.10;;;1.00;;
23242;SDS011;11790;49.578;11.214;2022-07-03T08:41:18;1.83;;;0.98;;
23242;SDS011;11790;49.578;11.214;2022-07-03T08:46:19;2.33;;;0.90;;
23242;SDS011;11790;49.578;11.214;2022-07-03T08:51:19;4.15;;;1.10;;
23242;SDS011;11790;49.578;11.214;2022-07-03T08:56:20;2.30;;;1.10;;
23242;SDS011;11790;49.578;11.214;2022-07-03T09:01:20;2.05;;;1.00;;
23242;SDS011;11790;49.578;11.214;2022-07-03T09:06:21;1.60;;;0.90;;
23242;SDS011;11790;49.578;11.214;2022-07-03T09:11:21;1.20;;;0.80;;
23242;SDS011;11790;49.578;11.214;2022-07-03T09:16:22;1.42;;;0.75;;
23242;SDS011;11790;49.578;11.214;2022-07-03T09:21:23;2.05;;;0.90;;
23242;SDS011;11790;49.578;11.214;2022-07-03T09:26:24;1.23;;;0.90;;
23242;SDS011;11790;49.578;11.214;2022-07-03T09:31:28;1.05;;;0.85;;
23242;SDS011;11790;49.578;11.214;2022-07-03T09:36:38;1.30;;;0.80;;
23242;SDS011;11790;49.578;11.214;2022-07-03T09:41:58;0.77;;;0.70;;
23242;SDS011;11790;49.578;11.214;2022-07-03T09:52:30;1.55;;;0.80;;
23242;SDS011;11790;49.578;11.214;2022-07-03T09:57:31;1.00;;;0.80;;
23242;SDS011;11790;49.578;11.214;2022-07-03T10:02:31;0.90;;;0.80;;
23242;SDS011;11790;49.578;11.214;2022-07-03T10:07:32;1.27;;;0.80;;
23242;SDS011;11790;49.578;11.214;2022-07-03T10:12:49;1.80;;;0.88;;
23242;SDS011;11790;49.578;11.214;2022-07-03T10:17:51;0.80;;;0.60;;
23242;SDS011;11790;49.578;11.214;2022-07-03T10:22:51;0.95;;;0.85;;
23242;SDS011;11790;49.578;11.214;2022-07-03T10:27:52;0.90;;;0.67;;
23242;SDS011;11790;49.578;11.214;2022-07-03T10:32:53;1.33;;;0.80;;
23242;SDS011;11790;49.578;11.214;2022-07-03T10:43:05;4.15;;;0.95;;
23242;SDS011;11790;49.578;11.214;2022-07-03T10:48:49;1.23;;;0.80;;
23242;SDS011;11790;49.578;11.214;2022-07-03T10:53:47;0.80;;;0.80;;
23242;SDS011;11790;49.578;11.214;2022-07-03T10:58:54;0.80;;;0.60;;
23242;SDS011;11790;49.578;11.214;2022-07-03T11:03:57;4.32;;;0.55;;
23242;SDS011;11790;49.578;11.214;2022-07-03T11:09:02;1.13;;;0.60;;
23242;SDS011;11790;49.578;11.214;2022-07-03T11:14:18;0.77;;;0.52;;
23242;SDS011;11790;49.578;11.214;2022-07-03T11:19:25;1.40;;;0.43;;
23242;SDS011;11790;49.578;11.214;2022-07-03T11:24:27;2.83;;;0.45;;
23242;SDS011;11790;49.578;11.214;2022-07-03T11:29:30;1.48;;;0.45;;
23242;SDS011;11790;49.578;11.214;2022-07-03T11:34:41;0.43;;;0.40;;
23242;SDS011;11790;49.578;11.214;2022-07-03T11:39:42;0.43;;;0.38;;
23242;SDS011;11790;49.578;11.214;2022-07-03T11:44:42;0.50;;;0.40;;
23242;SDS011;11790;49.578;11.214;2022-07-03T11:49:48;0.55;;;0.40;;
23242;SDS011;11790;49.578;11.214;2022-07-03T11:54:52;0.60;;;0.32;;
23242;SDS011;11790;49.578;11.214;2022-07-03T11:59:56;0.63;;;0.38;;
23242;SDS011;11790;49.578;11.214;2022-07-03T12:05:12;0.77;;;0.40;;
23242;SDS011;11790;49.578;11.214;2022-07-03T12:10:13;0.68;;;0.30;;
23242;SDS011;11790;49.578;11.214;2022-07-03T12:15:13;0.30;;;0.30;;
23242;SDS011;11790;49.578;11.214;2022-07-03T12:20:13;0.38;;;0.30;;
23242;SDS011;11790;49.578;11.214;2022-07-03T12:25:14;0.40;;;0.40;;
23242;SDS011;11790;49.578;11.214;2022-07-03T12:30:23;0.80;;;0.40;;
23242;SDS011;11790;49.578;11.214;2022-07-03T12:35:27;0.30;;;0.30;;
23242;SDS011;11790;49.578;11.214;2022-07-03T12:40:27;0.50;;;0.40;;
23242;SDS011;11790;49.578;11.214;2022-07-03T12:45:28;0.40;;;0.40;;
23242;SDS011;11790;49.578;11.214;2022-07-03T12:50:47;0.40;;;0.30;;
23242;SDS011;11790;49.578;11.214;2022-07-03T12:55:48;0.40;;;0.40;;
23242;SDS011;11790;49.578;11.214;2022-07-03T13:00:48;0.50;;;0.38;;
23242;SDS011;11790;49.578;11.214;2022-07-03T13:05:49;0.52;;;0.40;;
23242;SDS011;11790;49.578;11.214;2022-07-03T13:10:59;0.68;;;0.40;;
23242;SDS011;11790;49.578;11.214;2022-07-03T13:15:59;1.02;;;0.52;;
23242;SDS011;11790;49.578;11.214;2022-07-03T13:20:59;0.77;;;0.40;;
23242;SDS011;11790;49.578;11.214;2022-07-03T13:25:59;0.37;;;0.37;;
23242;SDS011;11790;49.578;11.214;2022-07-03T13:31:00;3.63;;;0.40;;
23242;SDS011;11790;49.578;11.214;2022-07-03T13:36:00;0.73;;;0.40;;
23242;SDS011;11790;49.578;11.214;2022-07-03T13:41:00;0.60;;;0.30;;
23242;SDS011;11790;49.578;11.214;2022-07-03T13:46:00;0.45;;;0.30;;
23242;SDS011;11790;49.578;11.214;2022-07-03T13:51:01;0.40;;;0.30;;
23242;SDS011;11790;49.578;11.214;2022-07-03T13:56:01;0.30;;;0.30;;
23242;SDS011;11790;49.578;11.214;2022-07-03T14:01:02;1.65;;;0.30;;
23242;SDS011;11790;49.578;11.214;2022-07-03T14:06:02;0.30;;;0.20;;
23242;SDS011;11790;49.578;11.214;2022-07-03T14:11:02;0.40;;;0.30;;
23242;SDS011;11790;49.578;11.214;2022-07-03T14:16:02;0.38;;;0.30;;
23242;SDS011;11790;49.578;11.214;2022-07-03T14:21:03;0.40;;;0.30;;
23242;SDS011;11790;49.578;11.214;2022-07-03T14:26:05;0.65;;;0.30;;
23242;SDS011;11790;49.578;11.214;2022-07-03T14:31:06;0.50;;;0.40;;
23242;SDS011;11790;49.578;11.214;2022-07-03T14:36:24;1.00;;;0.52;;
23242;SDS011;11790;49.578;11.214;2022-07-03T14:41:24;0.30;;;0.30;;
23242;SDS011;11790;49.578;11.214;2022-07-03T14:46:25;1.00;;;0.40;;
23242;SDS011;11790;49.578;11.214;2022-07-03T14:51:25;0.55;;;0.30;;
23242;SDS011;11790;49.578;11.214;2022-07-03T14:56:25;0.80;;;0.50;;
23242;SDS011;11790;49.578;11.214;2022-07-03T15:01:26;0.40;;;0.40;;
23242;SDS011;11790;49.578;11.214;2022-07-03T15:06:27;0.70;;;0.50;;
23242;SDS011;11790;49.578;11.214;2022-07-03T15:11:37;1.25;;;0.40;;
23242;SDS011;11790;49.578;11.214;2022-07-03T15:17:05;1.00;;;0.57;;
23242;SDS011;11790;49.578;11.214;2022-07-03T15:22:06;0.73;;;0.45;;
23242;SDS011;11790;49.578;11.214;2022-07-03T15:27:07;0.50;;;0.43;;
23242;SDS011;11790;49.578;11.214;2022-07-03T15:32:07;0.60;;;0.50;;
23242;SDS011;11790;49.578;11.214;2022-07-03T15:37:12;2.45;;;0.50;;
23242;SDS011;11790;49.578;11.214;2022-07-03T15:42:16;0.80;;;0.30;;
23242;SDS011;11790;49.578;11.214;2022-07-03T15:52:18;0.60;;;0.50;;
23242;SDS011;11790;49.578;11.214;2022-07-03T15:57:26;0.50;;;0.40;;
23242;SDS011;11790;49.578;11.214;2022-07-03T16:02:48;0.50;;;0.30;;
23242;SDS011;11790;49.578;11.214;2022-07-03T16:07:52;0.63;;;0.50;;
23242;SDS011;11790;49.578;11.214;2022-07-03T16:12:52;0.60;;;0.47;;
23242;SDS011;11790;49.578;11.214;2022-07-03T16:17:53;0.35;;;0.32;;
23242;SDS011;11790;49.578;11.214;2022-07-03T16:22:55;2.25;;;0.57;;
23242;SDS011;11790;49.578;11.214;2022-07-03T16:27:56;0.45;;;0.38;;
23242;SDS011;11790;49.578;11.214;2022-07-03T16:32:57;0.47;;;0.37;;
23242;SDS011;11790;49.578;11.214;2022-07-03T16:38:01;3.80;;;0.67;;
23242;SDS011;11790;49.578;11.214;2022-07-03T16:43:02;1.45;;;0.50;;
23242;SDS011;11790;49.578;11.214;2022-07-03T16:48:14;0.68;;;0.50;;
23242;SDS011;11790;49.578;11.214;2022-07-03T16:53:17;0.40;;;0.30;;
23242;SDS011;11790;49.578;11.214;2022-07-03T16:58:18;0.50;;;0.35;;
23242;SDS011;11790;49.578;11.214;2022-07-03T17:03:19;1.27;;;0.70;;
23242;SDS011;11790;49.578;11.214;2022-07-03T17:08:20;0.73;;;0.40;;
23242;SDS011;11790;49.578;11.214;2022-07-03T17:13:20;0.43;;;0.38;;
23242;SDS011;11790;49.578;11.214;2022-07-03T17:18:23;0.70;;;0.50;;
23242;SDS011;11790;49.578;11.214;2022-07-03T17:23:25;0.77;;;0.50;;
23242;SDS011;11790;49.578;11.214;2022-07-03T17:28:25;0.93;;;0.40;;
23242;SDS011;11790;49.578;11.214;2022-07-03T17:33:26;0.90;;;0.40;;
23242;SDS011;11790;49.578;11.214;2022-07-03T17:38:26;1.05;;;0.40;;
23242;SDS011;11790;49.578;11.214;2022-07-03T17:43:26;3.53;;;0.80;;
23242;SDS011;11790;49.578;11.214;2022-07-03T17:48:27;1.80;;;0.40;;
23242;SDS011;11790;49.578;11.214;2022-07-03T17:53:29;1.30;;;0.40;;
23242;SDS011;11790;49.578;11.214;2022-07-03T17:58:30;0.73;;;0.40;;
23242;SDS011;11790;49.578;11.214;2022-07-03T18:03:31;0.40;;;0.40;;
23242;SDS011;11790;49.578;11.214;2022-07-03T18:08:44;1.33;;;0.30;;
23242;SDS011;11790;49.578;11.214;2022-07-03T18:13:49;1.77;;;0.40;;
23242;SDS011;11790;49.578;11.214;2022-07-03T18:18:55;0.90;;;0.43;;
23242;SDS011;11790;49.578;11.214;2022-07-03T18:23:56;0.80;;;0.40;;
23242;SDS011;11790;49.578;11.214;2022-07-03T18:28:57;0.55;;;0.40;;
23242;SDS011;11790;49.578;11.214;2022-07-03T18:33:58;0.63;;;0.43;;
23242;SDS011;11790;49.578;11.214;2022-07-03T18:38:59;0.70;;;0.47;;
23242;SDS011;11790;49.578;11.214;2022-07-03T18:43:59;0.73;;;0.50;;
23242;SDS011;11790;49.578;11.214;2022-07-03T18:49:00;1.08;;;0.43;;
23242;SDS011;11790;49.578;11.214;2022-07-03T18:54:08;1.50;;;0.60;;
23242;SDS011;11790;49.578;11.214;2022-07-03T19:09:34;0.60;;;0.60;;
23242;SDS011;11790;49.578;11.214;2022-07-03T19:14:35;2.08;;;0.57;;
23242;SDS011;11790;49.578;11.214;2022-07-03T19:19:35;2.80;;;0.60;;
23242;SDS011;11790;49.578;11.214;2022-07-03T19:24:35;1.17;;;0.60;;
23242;SDS011;11790;49.578;11.214;2022-07-03T19:29:36;1.63;;;0.77;;
23242;SDS011;11790;49.578;11.214;2022-07-03T19:34:36;1.25;;;0.70;;
23242;SDS011;11790;49.578;11.214;2022-07-03T19:39:37;1.95;;;1.23;;
23242;SDS011;11790;49.578;11.214;2022-07-03T19:44:37;2.70;;;1.42;;
23242;SDS011;11790;49.578;11.214;2022-07-03T19:49:38;1.55;;;1.02;;
23242;SDS011;11790;49.578;11.214;2022-07-03T19:54:38;1.23;;;0.80;;
23242;SDS011;11790;49.578;11.214;2022-07-03T19:59:39;1.60;;;1.05;;
23242;SDS011;11790;49.578;11.214;2022-07-03T20:04:39;1.33;;;0.90;;
23242;SDS011;11790;49.578;11.214;2022-07-03T20:09:39;2.03;;;0.90;;
23242;SDS011;11790;49.578;11.214;2022-07-03T20:14:40;1.67;;;1.10;;
23242;SDS011;11790;49.578;11.214;2022-07-03T20:19:43;2.08;;;1.00;;
23242;SDS011;11790;49.578;11.214;2022-07-03T20:24:44;1.40;;;1.10;;
23242;SDS011;11790;49.578;11.214;2022-07-03T20:29:45;1.27;;;0.85;;
23242;SDS011;11790;49.578;11.214;2022-07-03T20:34:46;1.15;;;0.82;;
23242;SDS011;11790;49.578;11.214;2022-07-03T20:39:47;1.65;;;1.00;;
23242;SDS011;11790;49.578;11.214;2022-07-03T20:44:48;1.23;;;0.98;;
23242;SDS011;11790;49.578;11.214;2022-07-03T20:49:50;1.60;;;0.90;;
23242;SDS011;11790;49.578;11.214;2022-07-03T20:54:50;1.63;;;1.00;;
23242;SDS011;11790;49.578;11.214;2022-07-03T20:59:50;1.75;;;0.93;;
23242;SDS011;11790;49.578;11.214;2022-07-03T21:04:51;1.70;;;1.10;;
23242;SDS011;11790;49.578;11.214;2022-07-03T21:09:51;1.92;;;1.02;;
23242;SDS011;11790;49.578;11.214;2022-07-03T21:14:52;1.90;;;1.23;;
23242;SDS011;11790;49.578;11.214;2022-07-03T21:19:52;2.17;;;1.02;;
23242;SDS011;11790;49.578;11.214;2022-07-03T21:24:52;1.88;;;1.10;;
23242;SDS011;11790;49.578;11.214;2022-07-03T21:29:52;3.38;;;1.30;;
23242;SDS011;11790;49.578;11.214;2022-07-03T21:34:53;1.58;;;1.10;;
23242;SDS011;11790;49.578;11.214;2022-07-03T21:39:53;3.50;;;1.20;;
23242;SDS011;11790;49.578;11.214;2022-07-03T21:44:53;1.90;;;1.50;;
23242;SDS011;11790;49.578;11.214;2022-07-03T21:49:53;2.88;;;1.40;;
23242;SDS011;11790;49.578;11.214;2022-07-03T21:54:54;2.60;;;1.20;;
23242;SDS011;11790;49.578;11.214;2022-07-03T21:59:54;2.37;;;1.37;;
23242;SDS011;11790;49.578;11.214;2022-07-03T22:04:54;4.53;;;1.17;;
23242;SDS011;11790;49.578;11.214;2022-07-03T22:09:54;1.83;;;1.50;;
23242;SDS011;11790;49.578;11.214;2022-07-03T22:14:55;5.90;;;1.40;;
23242;SDS011;11790;49.578;11.214;2022-07-03T22:19:55;3.53;;;1.30;;
23242;SDS011;11790;49.578;11.214;2022-07-03T22:24:55;1.38;;;1.10;;
23242;SDS011;11790;49.578;11.214;2022-07-03T22:29:55;2.00;;;1.30;;
23242;SDS011;11790;49.578;11.214;2022-07-03T22:34:56;3.20;;;1.37;;
23242;SDS011;11790;49.578;11.214;2022-07-03T22:39:56;2.05;;;1.23;;
23242;SDS011;11790;49.578;11.214;2022-07-03T22:44:56;1.23;;;1.10;;
23242;SDS011;11790;49.578;11.214;2022-07-03T22:49:58;1.42;;;1.17;;
23242;SDS011;11790;49.578;11.214;2022-07-03T22:54:58;1.40;;;1.20;;
23242;SDS011;11790;49.578;11.214;2022-07-03T22:59:59;2.33;;;1.58;;
23242;SDS011;11790;49.578;11.214;2022-07-03T23:05:00;2.70;;;1.30;;
23242;SDS011;11790;49.578;11.214;2022-07-03T23:10:00;3.45;;;1.90;;
23242;SDS011;11790;49.578;11.214;2022-07-03T23:15:00;5.53;;;1.80;;
23242;SDS011;11790;49.578;11.214;2022-07-03T23:20:00;3.45;;;1.80;;
23242;SDS011;11790;49.578;11.214;2022-07-03T23:25:00;2.10;;;1.35;;
23242;SDS011;11790;49.578;11.214;2022-07-03T23:30:01;1.60;;;1.50;;
23242;SDS011;11790;49.578;11.214;2022-07-03T23:35:01;2.70;;;1.40;;
23242;SDS011;11790;49.578;11.214;2022-07-03T23:40:02;2.45;;;1.40;;
23242;SDS011;11790;49.578;11.214;2022-07-03T23:45:02;2.13;;;1.38;;
23242;SDS011;11790;49.578;11.214;2022-07-03T23:50:03;1.50;;;1.33;;
23242;SDS011;11790;49.578;11.214;2022-07-03T23:55:22;1.70;;;1.33;;
